createdAt,value
2023-03-08T00:02:01.223Z,55.93
2023-03-08T00:04:27.709Z,55.87
2023-03-08T00:06:54.348Z,55.92
2023-03-08T00:09:20.759Z,55.84
2023-03-08T00:11:47.188Z,55.87
2023-03-08T00:14:13.582Z,55.80
2023-03-08T00:16:39.988Z,55.72
2023-03-08T00:19:06.424Z,55.55
2023-03-08T00:21:32.848Z,55.39
2023-03-08T00:23:59.239Z,55.70
2023-03-08T00:26:25.725Z,55.47
2023-03-08T00:28:53.015Z,55.80
2023-03-08T00:31:19.644Z,55.29
2023-03-08T00:33:46.191Z,55.79
2023-03-08T00:36:17.468Z,55.58
2023-03-08T00:38:44.655Z,55.36
2023-03-08T00:41:14.272Z,55.91
2023-03-08T00:43:42.361Z,55.75
2023-03-08T00:46:09.671Z,55.58
2023-03-08T00:48:36.204Z,55.64
2023-03-08T00:51:02.683Z,55.74
2023-03-08T00:53:29.878Z,55.52
2023-03-08T00:55:57.848Z,55.58
2023-03-08T00:58:26.514Z,55.41
2023-03-08T01:00:53.380Z,55.69
2023-03-08T01:03:21.825Z,55.75
2023-03-08T01:05:50.617Z,55.52
2023-03-08T01:08:18.382Z,55.78
2023-03-08T01:10:49.866Z,55.81
2023-03-08T01:13:17.150Z,55.67
2023-03-08T01:15:43.890Z,55.80
2023-03-08T01:18:10.748Z,55.52
2023-03-08T01:20:37.267Z,55.11
2023-03-08T01:23:03.864Z,55.48
2023-03-08T01:25:30.720Z,55.22
2023-03-08T01:27:57.180Z,55.72
2023-03-08T01:30:24.142Z,55.13
2023-03-08T01:32:50.709Z,55.21
2023-03-08T01:35:17.861Z,55.39
2023-03-08T01:37:53.607Z,55.55
2023-03-08T01:40:21.369Z,55.69
2023-03-08T01:42:47.973Z,55.40
2023-03-08T01:45:53.089Z,55.74
2023-03-08T01:48:23.599Z,55.86
2023-03-08T01:50:58.756Z,55.77
2023-03-08T01:53:25.688Z,55.98
2023-03-08T01:55:52.782Z,55.82
2023-03-08T01:58:19.373Z,55.88
2023-03-08T02:00:45.839Z,55.84
2023-03-08T02:03:12.459Z,55.53
2023-03-08T02:05:41.929Z,55.58
2023-03-08T02:08:15.044Z,56.29
2023-03-08T02:10:43.556Z,55.76
2023-03-08T02:13:11.299Z,55.96
2023-03-08T02:15:41.157Z,55.97
2023-03-08T02:18:07.743Z,55.74
2023-03-08T02:20:36.731Z,55.71
2023-03-08T02:23:12.642Z,56.03
2023-03-08T02:25:47.339Z,56.07
2023-03-08T02:28:13.846Z,56.04
2023-03-08T02:30:40.436Z,55.87
2023-03-08T02:33:07.594Z,56.06
2023-03-08T02:35:38.583Z,55.82
2023-03-08T02:38:05.052Z,56.11
2023-03-08T02:40:31.512Z,55.90
2023-03-08T02:42:57.967Z,55.97
2023-03-08T02:45:24.477Z,55.84
2023-03-08T02:47:50.939Z,56.43
2023-03-08T02:50:18.426Z,55.96
2023-03-08T02:52:44.906Z,56.01
2023-03-08T02:55:11.364Z,56.18
2023-03-08T02:57:37.848Z,55.89
2023-03-08T03:00:06.386Z,55.49
2023-03-08T03:02:33.879Z,55.61
2023-03-08T03:05:00.388Z,55.98
2023-03-08T03:07:27.668Z,56.46
2023-03-08T03:09:54.732Z,56.45
2023-03-08T03:12:21.563Z,57.04
2023-03-08T03:14:48.093Z,57.19
2023-03-08T03:17:15.182Z,57.09
2023-03-08T03:19:41.731Z,56.68
2023-03-08T03:22:08.241Z,56.67
2023-03-08T03:24:37.409Z,56.42
2023-03-08T03:27:05.321Z,56.51
2023-03-08T03:29:34.494Z,56.00
2023-03-08T03:32:11.042Z,55.92
2023-03-08T03:34:37.645Z,55.69
2023-03-08T03:37:04.547Z,55.38
2023-03-08T03:39:34.687Z,55.55
2023-03-08T03:42:02.157Z,55.31
2023-03-08T03:44:30.887Z,55.50
2023-03-08T03:46:58.208Z,55.13
2023-03-08T03:49:27.210Z,55.31
2023-03-08T03:51:53.675Z,55.22
2023-03-08T03:54:24.543Z,54.81
2023-03-08T03:56:51.333Z,54.98
2023-03-08T03:59:21.583Z,55.18
2023-03-08T04:01:48.595Z,55.18
2023-03-08T04:04:21.618Z,55.10
2023-03-08T04:06:49.011Z,55.06
2023-03-08T04:09:18.882Z,54.92
2023-03-08T04:11:52.365Z,54.84
2023-03-08T04:14:21.797Z,54.85
2023-03-08T04:16:49.754Z,55.18
2023-03-08T04:19:26.637Z,54.56
2023-03-08T04:21:56.373Z,54.79
2023-03-08T04:24:27.300Z,54.94
2023-03-08T04:26:57.826Z,54.24
2023-03-08T04:29:24.341Z,54.64
2023-03-08T04:31:51.013Z,54.32
2023-03-08T04:34:19.642Z,54.03
2023-03-08T04:36:49.101Z,54.10
2023-03-08T04:39:16.398Z,54.13
2023-03-08T04:41:42.837Z,54.52
2023-03-08T04:44:22.395Z,54.05
2023-03-08T04:46:51.763Z,53.96
2023-03-08T04:49:26.051Z,53.34
2023-03-08T04:51:58.083Z,53.72
2023-03-08T04:54:25.031Z,54.04
2023-03-08T04:56:58.817Z,53.79
2023-03-08T04:59:25.654Z,53.71
2023-03-08T05:01:54.920Z,53.55
2023-03-08T05:04:22.798Z,53.74
2023-03-08T05:06:49.226Z,53.61
2023-03-08T05:09:20.926Z,53.97
2023-03-08T05:11:50.728Z,53.84
2023-03-08T05:14:17.191Z,53.70
2023-03-08T05:16:43.934Z,53.55
2023-03-08T05:19:11.491Z,53.24
2023-03-08T05:21:45.502Z,53.84
2023-03-08T05:24:12.797Z,54.07
2023-03-08T05:26:39.514Z,53.62
2023-03-08T05:29:06.754Z,54.15
2023-03-08T05:31:36.556Z,54.04
2023-03-08T05:34:05.366Z,53.53
2023-03-08T05:36:36.519Z,53.65
2023-03-08T05:39:06.755Z,53.94
2023-03-08T05:41:41.413Z,53.68
2023-03-08T05:44:08.367Z,53.73
2023-03-08T05:46:38.223Z,53.68
2023-03-08T05:49:06.529Z,53.80
2023-03-08T05:51:35.056Z,53.86
2023-03-08T05:54:02.142Z,54.09
2023-03-08T05:56:31.140Z,53.73
2023-03-08T05:59:05.598Z,54.14
2023-03-08T06:01:32.522Z,54.75
2023-03-08T06:04:11.028Z,54.84
2023-03-08T06:06:40.225Z,54.66
2023-03-08T06:09:07.911Z,54.50
2023-03-08T06:11:37.565Z,54.86
2023-03-08T06:14:05.171Z,54.94
2023-03-08T06:16:35.106Z,55.15
2023-03-08T06:19:02.342Z,54.96
2023-03-08T06:21:29.819Z,55.85
2023-03-08T06:24:00.140Z,55.69
2023-03-08T06:26:26.546Z,55.95
2023-03-08T06:28:53.258Z,55.68
2023-03-08T06:31:20.744Z,56.17
2023-03-08T06:33:47.445Z,55.83
2023-03-08T06:36:21.363Z,56.96
2023-03-08T06:38:49.829Z,57.88
2023-03-08T06:41:17.905Z,58.49
2023-03-08T06:43:47.594Z,58.37
2023-03-08T06:46:20.183Z,59.19
2023-03-08T06:48:48.158Z,60.44
2023-03-08T06:51:16.624Z,60.97
2023-03-08T06:53:44.942Z,61.30
2023-03-08T06:56:15.515Z,62.60
2023-03-08T06:58:42.877Z,63.03
2023-03-08T07:01:09.870Z,63.36
2023-03-08T07:03:36.788Z,64.72
2023-03-08T07:06:05.946Z,66.49
2023-03-08T07:08:32.728Z,67.59
2023-03-08T07:10:59.947Z,68.85
2023-03-08T07:13:26.789Z,70.37
2023-03-08T07:15:53.334Z,72.49
2023-03-08T07:18:20.359Z,84.81
2023-03-08T07:20:57.530Z,74.66
2023-03-08T07:23:24.727Z,71.14
2023-03-08T07:25:51.394Z,72.29
2023-03-08T07:28:19.175Z,71.84
2023-03-08T07:30:50.425Z,72.69
2023-03-08T07:33:18.731Z,72.66
2023-03-08T07:35:45.200Z,72.84
2023-03-08T07:38:12.441Z,73.76
2023-03-08T07:40:39.161Z,74.42
2023-03-08T07:43:06.253Z,74.55
2023-03-08T07:46:05.330Z,75.76
2023-03-08T07:48:32.569Z,76.10
2023-03-08T07:51:07.132Z,76.37
2023-03-08T07:53:33.987Z,76.45
2023-03-08T07:56:00.597Z,76.34
2023-03-08T07:58:28.131Z,77.09
2023-03-08T08:00:54.557Z,76.93
2023-03-08T08:03:21.372Z,77.38
2023-03-08T08:05:48.132Z,77.99
2023-03-08T08:08:14.790Z,77.72
2023-03-08T08:10:42.297Z,77.19
2023-03-08T08:13:09.491Z,77.60
2023-03-08T08:15:35.931Z,77.30
2023-03-08T08:18:02.439Z,77.31
2023-03-08T08:20:28.929Z,77.96
2023-03-08T08:22:55.377Z,77.46
2023-03-08T08:25:22.071Z,76.74
2023-03-08T08:27:49.949Z,77.84
2023-03-08T08:30:16.565Z,77.78
2023-03-08T08:32:43.073Z,78.21
2023-03-08T08:35:09.785Z,78.56
2023-03-08T08:37:36.175Z,78.13
2023-03-08T08:40:04.760Z,78.14
2023-03-08T08:42:31.206Z,78.07
2023-03-08T08:44:57.607Z,79.67
2023-03-08T08:47:24.085Z,79.03
2023-03-08T08:49:52.344Z,79.46
2023-03-08T08:52:19.144Z,79.76
2023-03-08T08:54:45.717Z,79.26
2023-03-08T08:57:12.166Z,79.25
2023-03-08T08:59:38.614Z,78.88
2023-03-08T09:02:06.184Z,79.12
2023-03-08T09:04:32.768Z,80.01
2023-03-08T09:06:59.237Z,79.12
2023-03-08T09:09:26.788Z,79.85
2023-03-08T09:11:55.577Z,79.31
2023-03-08T09:14:23.391Z,79.86
2023-03-08T09:16:50.168Z,79.45
2023-03-08T09:19:16.773Z,79.49
2023-03-08T09:21:43.327Z,78.97
2023-03-08T09:24:11.668Z,80.13
2023-03-08T09:26:38.273Z,80.28
2023-03-08T09:29:05.523Z,80.26
2023-03-08T09:31:34.088Z,80.91
2023-03-08T09:34:00.685Z,81.63
2023-03-08T09:36:29.971Z,82.17
2023-03-08T09:38:56.445Z,81.85
2023-03-08T09:41:44.549Z,81.06
2023-03-08T09:44:18.060Z,81.06
2023-03-08T09:46:54.018Z,80.32
2023-03-08T09:49:28.047Z,80.73
2023-03-08T09:52:04.436Z,80.63
2023-03-08T09:54:34.947Z,80.72
2023-03-08T09:57:06.749Z,81.56
2023-03-08T09:59:41.002Z,81.04
2023-03-08T10:02:34.922Z,81.37
2023-03-08T10:05:14.368Z,81.20
2023-03-08T10:08:05.017Z,81.96
2023-03-08T10:11:00.404Z,82.45
2023-03-08T10:13:31.126Z,83.19
2023-03-08T10:16:25.058Z,83.53
2023-03-08T10:18:58.633Z,84.21
2023-03-08T10:21:26.664Z,84.87
2023-03-08T10:24:01.956Z,85.04
2023-03-08T10:26:29.135Z,85.52
2023-03-08T10:28:55.630Z,86.10
2023-03-08T10:31:30.875Z,86.10
2023-03-08T10:34:07.092Z,87.24
2023-03-08T10:36:33.574Z,87.48
2023-03-08T10:39:08.797Z,87.01
2023-03-08T10:41:44.777Z,87.63
2023-03-08T10:44:29.650Z,88.36
2023-03-08T10:46:56.171Z,87.91
2023-03-08T10:49:26.923Z,88.79
2023-03-08T10:52:00.351Z,88.33
2023-03-08T10:54:28.486Z,88.38
2023-03-08T10:56:59.001Z,88.42
2023-03-08T10:59:34.606Z,88.35
2023-03-08T11:02:12.921Z,88.47
2023-03-08T11:04:51.001Z,88.74
2023-03-08T11:07:25.905Z,88.46
2023-03-08T11:10:03.570Z,88.31
2023-03-08T11:12:30.029Z,88.81
2023-03-08T11:14:56.483Z,89.16
2023-03-08T11:17:39.175Z,89.76
2023-03-08T11:20:28.344Z,90.46
2023-03-08T11:23:18.266Z,90.73
2023-03-08T11:25:48.481Z,90.82
2023-03-08T11:28:44.606Z,91.18
2023-03-08T11:31:20.860Z,91.43
2023-03-08T11:33:59.501Z,91.79
2023-03-08T11:36:38.542Z,92.27
2023-03-08T11:39:19.915Z,92.33
2023-03-08T11:42:07.130Z,93.54
2023-03-08T11:44:36.567Z,93.54
2023-03-08T11:47:30.901Z,94.73
2023-03-08T11:50:21.902Z,97.04
2023-03-08T11:53:09.292Z,96.55
2023-03-08T11:56:01.962Z,96.05
2023-03-08T11:58:36.430Z,97.44
2023-03-08T12:01:11.926Z,97.06
2023-03-08T12:03:43.726Z,97.97
2023-03-08T12:06:27.936Z,97.14
2023-03-08T12:09:01.590Z,97.39
2023-03-08T12:11:32.647Z,97.65
2023-03-08T12:14:09.493Z,98.32
2023-03-08T12:16:40.713Z,97.83
2023-03-08T12:19:30.301Z,99.29
2023-03-08T12:22:18.282Z,97.97
2023-03-08T12:24:56.497Z,98.89
2023-03-08T12:27:38.813Z,98.24
2023-03-08T12:30:10.976Z,98.59
2023-03-08T12:32:40.135Z,98.42
2023-03-08T12:35:38.135Z,98.04
2023-03-08T12:38:25.842Z,98.12
2023-03-08T12:40:54.493Z,97.47
2023-03-08T12:43:20.895Z,97.35
2023-03-08T12:45:59.623Z,97.46
2023-03-08T12:48:28.565Z,97.64
2023-03-08T12:51:27.270Z,96.02
2023-03-08T12:53:53.706Z,96.42
2023-03-08T12:56:36.561Z,95.31
2023-03-08T12:59:14.942Z,95.36
2023-03-08T13:01:47.148Z,95.40
2023-03-08T13:04:39.737Z,94.91
2023-03-08T13:07:39.451Z,94.97
2023-03-08T13:10:21.134Z,94.74
2023-03-08T13:13:02.872Z,94.91
2023-03-08T13:15:29.426Z,95.09
2023-03-08T13:18:00.386Z,95.76
2023-03-08T13:20:41.359Z,96.06
2023-03-08T13:23:26.026Z,95.80
2023-03-08T13:26:18.035Z,96.48
2023-03-08T13:28:48.052Z,96.37
2023-03-08T13:31:18.684Z,96.34
2023-03-08T13:33:53.920Z,95.07
2023-03-08T13:36:29.015Z,94.91
2023-03-08T13:38:57.572Z,95.33
2023-03-08T13:41:42.722Z,96.35
2023-03-08T13:44:18.343Z,96.55
2023-03-08T13:46:48.430Z,97.17
2023-03-08T13:49:29.900Z,96.27
2023-03-08T13:51:59.608Z,96.14
2023-03-08T13:54:30.390Z,95.57
2023-03-08T13:57:02.815Z,95.27
2023-03-08T13:59:29.958Z,94.81
2023-03-08T14:01:57.462Z,94.52
2023-03-08T14:04:29.487Z,96.95
2023-03-08T14:06:59.117Z,96.40
2023-03-08T14:09:26.978Z,95.79
2023-03-08T14:11:59.616Z,97.07
2023-03-08T14:14:32.604Z,98.39
2023-03-08T14:16:59.713Z,99.50
2023-03-08T14:19:29.937Z,99.40
2023-03-08T14:21:59.911Z,98.92
2023-03-08T14:24:29.688Z,98.48
2023-03-08T14:27:00.553Z,98.65
2023-03-08T14:29:32.565Z,98.16
2023-03-08T14:32:13.132Z,98.57
2023-03-08T14:34:49.388Z,98.58
2023-03-08T14:37:23.914Z,98.55
2023-03-08T14:39:56.884Z,98.38
2023-03-08T14:42:35.553Z,98.05
2023-03-08T14:45:06.748Z,98.55
2023-03-08T14:47:35.443Z,98.87
2023-03-08T14:50:06.862Z,98.02
2023-03-08T14:52:36.889Z,97.68
2023-03-08T14:55:18.745Z,98.69
2023-03-08T14:57:45.225Z,97.81
2023-03-08T15:00:14.567Z,97.49
2023-03-08T15:02:42.153Z,97.62
2023-03-08T15:05:28.432Z,96.96
2023-03-08T15:07:56.515Z,96.11
2023-03-08T15:10:33.723Z,96.85
2023-03-08T15:13:00.691Z,96.86
2023-03-08T15:15:27.152Z,97.80
2023-03-08T15:17:53.660Z,97.45
2023-03-08T15:20:20.784Z,97.97
2023-03-08T15:22:51.495Z,97.81
2023-03-08T15:25:27.802Z,97.69
2023-03-08T15:27:54.284Z,96.92
2023-03-08T15:30:27.645Z,96.60
2023-03-08T15:32:55.071Z,97.12
2023-03-08T15:35:22.826Z,96.86
2023-03-08T15:37:49.965Z,96.25
2023-03-08T15:40:23.476Z,95.88
2023-03-08T15:42:50.049Z,95.63
2023-03-08T15:45:16.471Z,94.67
2023-03-08T15:47:43.259Z,95.50
2023-03-08T15:50:17.965Z,95.04
2023-03-08T15:52:45.181Z,95.38
2023-03-08T15:55:13.625Z,95.36
2023-03-08T15:57:41.020Z,94.91
2023-03-08T16:00:10.462Z,94.11
2023-03-08T16:02:37.906Z,93.78
2023-03-08T16:05:06.563Z,93.31
2023-03-08T16:07:33.252Z,92.66
2023-03-08T16:09:59.844Z,92.32
2023-03-08T16:12:26.644Z,91.65
2023-03-08T16:14:54.937Z,91.09
2023-03-08T16:17:21.517Z,90.85
2023-03-08T16:19:48.046Z,90.68
2023-03-08T16:22:14.582Z,90.59
2023-03-08T16:24:40.994Z,90.23
2023-03-08T16:27:07.476Z,89.91
2023-03-08T16:29:34.222Z,89.59
2023-03-08T16:32:00.996Z,89.86
2023-03-08T16:34:29.317Z,89.39
2023-03-08T16:36:56.724Z,89.75
2023-03-08T16:39:24.528Z,89.64
2023-03-08T16:41:52.330Z,89.46
2023-03-08T16:44:20.988Z,89.87
2023-03-08T16:46:47.973Z,89.70
2023-03-08T16:49:15.999Z,89.97
2023-03-08T16:51:43.062Z,89.86
2023-03-08T16:54:13.317Z,89.53
2023-03-08T16:56:42.521Z,90.31
2023-03-08T16:59:12.410Z,90.38
2023-03-08T17:01:39.738Z,90.58
2023-03-08T17:04:06.263Z,90.30
2023-03-08T17:06:33.036Z,90.78
2023-03-08T17:08:59.635Z,91.04
2023-03-08T17:11:29.914Z,90.82
2023-03-08T17:13:59.684Z,90.83
2023-03-08T17:16:29.748Z,90.44
2023-03-08T17:18:58.295Z,90.65
2023-03-08T17:21:24.861Z,90.54
2023-03-08T17:23:53.434Z,90.69
2023-03-08T17:26:23.038Z,91.14
2023-03-08T17:28:51.028Z,91.58
2023-03-08T17:31:21.101Z,91.63
2023-03-08T17:33:48.532Z,91.74
2023-03-08T17:36:15.746Z,92.07
2023-03-08T17:38:42.590Z,91.62
2023-03-08T17:41:11.785Z,91.89
2023-03-08T17:43:41.043Z,92.19
2023-03-08T17:46:13.747Z,91.62
2023-03-08T17:48:40.448Z,92.11
2023-03-08T17:51:09.683Z,91.85
2023-03-08T17:53:37.804Z,92.34
2023-03-08T17:56:13.410Z,92.41
2023-03-08T17:58:40.268Z,93.68
2023-03-08T18:01:15.230Z,94.58
2023-03-08T18:03:42.285Z,96.67
2023-03-08T18:06:18.339Z,97.02
2023-03-08T18:08:44.931Z,98.14
2023-03-08T18:11:11.316Z,98.30
2023-03-08T18:13:40.317Z,98.83
2023-03-08T18:16:07.222Z,98.34
2023-03-08T18:18:33.692Z,98.68
2023-03-08T18:21:12.081Z,98.76
2023-03-08T18:23:41.706Z,99.07
2023-03-08T18:26:10.120Z,98.29
2023-03-08T18:28:36.554Z,97.72
2023-03-08T18:31:11.801Z,97.97
2023-03-08T18:33:38.337Z,97.67
2023-03-08T18:36:05.077Z,96.99
2023-03-08T18:38:31.633Z,97.31
2023-03-08T18:40:58.102Z,97.73
2023-03-08T18:43:25.354Z,97.22
2023-03-08T18:45:56.488Z,96.55
2023-03-08T18:48:24.249Z,95.92
2023-03-08T18:50:50.787Z,95.89
2023-03-08T18:53:17.256Z,96.10
2023-03-08T18:55:54.289Z,95.88
2023-03-08T18:58:21.230Z,95.33
2023-03-08T19:00:48.086Z,95.36
2023-03-08T19:03:14.515Z,95.55
2023-03-08T19:05:41.121Z,95.36
2023-03-08T19:08:07.557Z,94.89
2023-03-08T19:10:33.997Z,95.44
2023-03-08T19:13:00.505Z,95.01
2023-03-08T19:15:27.237Z,94.93
2023-03-08T19:17:58.617Z,94.78
2023-03-08T19:20:26.563Z,95.10
2023-03-08T19:22:53.414Z,94.56
2023-03-08T19:25:19.807Z,94.24
2023-03-08T19:27:46.302Z,94.42
2023-03-08T19:30:12.955Z,94.52
2023-03-08T19:32:42.157Z,93.78
2023-03-08T19:35:09.806Z,93.80
2023-03-08T19:37:36.286Z,93.97
2023-03-08T19:40:05.311Z,93.94
2023-03-08T19:42:31.843Z,93.51
2023-03-08T19:44:58.437Z,94.20
2023-03-08T19:47:24.854Z,94.21
2023-03-08T19:49:51.649Z,93.41
2023-03-08T19:52:18.186Z,93.08
2023-03-08T19:54:46.184Z,93.18
2023-03-08T19:57:12.944Z,93.42
2023-03-08T19:59:39.505Z,93.44
2023-03-08T20:02:08.633Z,93.16
2023-03-08T20:04:36.448Z,92.48
2023-03-08T20:07:04.722Z,92.72
2023-03-08T20:09:31.435Z,93.14
2023-03-08T20:11:59.146Z,92.43
2023-03-08T20:14:29.212Z,92.92
2023-03-08T20:16:56.339Z,93.19
2023-03-08T20:19:22.873Z,93.40
2023-03-08T20:21:49.531Z,92.82
2023-03-08T20:24:18.421Z,92.81
2023-03-08T20:26:45.374Z,93.67
2023-03-08T20:29:11.962Z,93.75
2023-03-08T20:31:38.415Z,93.70
2023-03-08T20:34:04.890Z,93.79
2023-03-08T20:36:31.477Z,94.15
2023-03-08T20:38:58.426Z,94.96
2023-03-08T20:41:25.708Z,95.12
2023-03-08T20:43:55.350Z,94.99
2023-03-08T20:46:28.065Z,96.14
2023-03-08T20:48:54.581Z,95.86
2023-03-08T20:51:22.007Z,96.71
2023-03-08T20:53:50.680Z,97.71
2023-03-08T20:56:19.831Z,98.00
2023-03-08T20:58:46.721Z,99.64
2023-03-08T21:01:16.413Z,99.49
2023-03-08T21:03:43.750Z,99.16
2023-03-08T21:06:15.018Z,99.24
2023-03-08T21:08:42.047Z,98.82
2023-03-08T21:11:08.955Z,99.26
2023-03-08T21:13:35.396Z,98.68
2023-03-08T21:16:07.518Z,98.79
2023-03-08T21:18:34.017Z,99.15
2023-03-08T21:21:01.454Z,99.25
2023-03-08T21:23:28.022Z,99.63
2023-03-08T21:25:58.010Z,99.19
2023-03-08T21:28:24.559Z,99.60
2023-03-08T21:30:51.419Z,99.52
2023-03-08T21:33:17.836Z,100.00
2023-03-08T21:35:44.806Z,100.00
2023-03-08T21:38:11.253Z,100.00
2023-03-08T21:40:40.390Z,99.85
2023-03-08T21:43:07.374Z,100.00
2023-03-08T21:45:39.040Z,100.00
2023-03-08T21:48:06.058Z,100.00
2023-03-08T21:50:32.944Z,100.00
2023-03-08T21:52:59.531Z,100.00
2023-03-08T21:55:25.984Z,100.00
2023-03-08T21:57:52.463Z,100.00
2023-03-08T22:00:18.910Z,100.00
2023-03-08T22:02:51.583Z,100.00
2023-03-08T22:05:18.829Z,100.00
2023-03-08T22:07:45.295Z,100.00
2023-03-08T22:10:13.585Z,100.00
2023-03-08T22:12:42.050Z,100.00
2023-03-08T22:15:08.926Z,100.00
2023-03-08T22:17:35.464Z,100.00
2023-03-08T22:20:01.873Z,100.00
2023-03-08T22:22:28.307Z,100.00
2023-03-08T22:24:54.712Z,100.00
2023-03-08T22:27:22.993Z,100.00
2023-03-08T22:29:49.945Z,100.00
2023-03-08T22:32:16.429Z,100.00
2023-03-08T22:34:43.044Z,99.76
2023-03-08T22:37:09.467Z,100.00
2023-03-08T22:39:37.709Z,100.00
2023-03-08T22:42:04.469Z,100.00
2023-03-08T22:44:31.232Z,100.00
2023-03-08T22:46:57.688Z,100.00
2023-03-08T22:49:24.106Z,100.00
2023-03-08T22:51:52.257Z,100.00
2023-03-08T22:54:21.563Z,99.94
2023-03-08T22:56:49.857Z,99.52
2023-03-08T22:59:16.720Z,99.94
2023-03-08T23:01:43.246Z,100.00
2023-03-08T23:04:12.136Z,100.00
2023-03-08T23:06:39.026Z,99.65
2023-03-08T23:09:08.071Z,99.91
2023-03-08T23:11:36.068Z,99.07
2023-03-08T23:14:03.355Z,98.83
2023-03-08T23:16:29.884Z,99.41
2023-03-08T23:18:56.412Z,99.52
2023-03-08T23:21:24.869Z,98.84
2023-03-08T23:23:51.338Z,98.83
2023-03-08T23:26:21.173Z,98.25
2023-03-08T23:28:48.052Z,97.55
2023-03-08T23:31:20.751Z,97.46
2023-03-08T23:33:48.986Z,97.20
2023-03-08T23:36:18.553Z,97.07
2023-03-08T23:38:45.071Z,98.29
2023-03-08T23:41:12.692Z,98.64
2023-03-08T23:43:40.358Z,99.58
2023-03-08T23:46:13.756Z,97.91
2023-03-08T23:48:40.493Z,97.20
2023-03-08T23:51:09.811Z,96.33
2023-03-08T23:53:36.693Z,96.36
2023-03-08T23:56:04.026Z,95.87
2023-03-08T23:58:30.772Z,96.03
